Terminal Aerodrome Forecast
Issued by NWS

Home | Current Version | Previous Version | Text Only | Print | Product List | Glossary On
Versions: 1 2 3 4 5 6 7 8 9 10 11 12 13
972
FTUS45 KRIW 220525
TAFWRL
TAF
KWRL 220525Z 2206/2306 VRB06KT P6SM FEW100
     FM221900 12007KT P6SM SKC=

USA.gov is the U.S. government's official web portal to all federal, state and local government web resources and services.